createdAt,value
2019-01-25T00:00:32.675Z,101040.27
2019-01-25T00:03:03.419Z,101039.55
2019-01-25T00:05:30.526Z,101047.38
2019-01-25T00:07:59.476Z,101043.39
2019-01-25T00:10:28.409Z,101037.36
2019-01-25T00:12:57.331Z,101050.19
2019-01-25T00:15:26.288Z,101043.35
2019-01-25T00:17:55.255Z,101044.52
2019-01-25T00:20:24.200Z,101049.98
2019-01-25T00:22:53.130Z,101050.64
2019-01-25T00:25:22.084Z,101050.39
2019-01-25T00:27:51.016Z,101042.48
2019-01-25T00:30:19.981Z,101044.01
2019-01-25T00:32:48.913Z,101038.05
2019-01-25T00:35:17.880Z,101041.86
2019-01-25T00:37:46.828Z,101044.42
2019-01-25T00:40:15.851Z,101040.03
2019-01-25T00:42:44.786Z,101041.60
2019-01-25T00:45:13.736Z,101039.81
2019-01-25T00:47:42.682Z,101039.81
2019-01-25T00:50:14.813Z,101041.70
2019-01-25T00:52:43.761Z,101043.04
2019-01-25T00:55:12.693Z,101040.13
2019-01-25T00:57:41.729Z,101044.88
2019-01-25T01:00:14.254Z,101049.22
2019-01-25T01:02:43.185Z,101050.84
2019-01-25T01:05:12.148Z,101049.83
2019-01-25T01:07:41.099Z,101051.98
2019-01-25T01:10:14.255Z,101058.67
2019-01-25T01:12:39.610Z,101059.69
2019-01-25T01:15:09.363Z,101061.87
2019-01-25T01:17:38.303Z,101073.02
2019-01-25T01:20:09.805Z,101070.23
2019-01-25T01:22:38.746Z,101070.63
2019-01-25T01:25:07.775Z,101074.61
2019-01-25T01:27:36.733Z,101072.78
2019-01-25T01:30:06.117Z,101075.54
2019-01-25T01:32:35.042Z,101074.62
2019-01-25T01:35:04.042Z,101073.02
2019-01-25T01:37:32.967Z,101075.19
2019-01-25T01:40:01.915Z,101081.63
2019-01-25T01:42:30.864Z,101081.84
2019-01-25T01:44:59.808Z,101080.24
2019-01-25T01:47:28.762Z,101074.73
2019-01-25T01:49:57.679Z,101073.35
2019-01-25T01:52:26.639Z,101067.87
2019-01-25T01:54:55.578Z,101073.14
2019-01-25T01:57:24.523Z,101081.58
2019-01-25T01:59:53.475Z,101076.52
2019-01-25T02:02:22.436Z,101076.11
2019-01-25T02:04:51.416Z,101071.67
2019-01-25T02:07:20.353Z,101073.13
2019-01-25T02:09:49.296Z,101073.42
2019-01-25T02:12:18.290Z,101072.53
2019-01-25T02:14:47.216Z,101065.68
2019-01-25T02:17:16.178Z,101065.62
2019-01-25T02:19:45.129Z,101068.91
2019-01-25T02:22:14.077Z,101064.56
2019-01-25T02:24:43.009Z,101067.93
2019-01-25T02:27:11.943Z,101066.38
2019-01-25T02:29:40.895Z,101059.55
2019-01-25T02:32:09.804Z,101058.22
2019-01-25T02:34:38.762Z,101064.19
2019-01-25T02:37:07.701Z,101056.89
2019-01-25T02:39:36.745Z,101051.58
2019-01-25T02:42:05.687Z,101052.30
2019-01-25T02:44:34.625Z,101052.75
2019-01-25T02:47:03.578Z,101052.50
2019-01-25T02:49:32.534Z,101050.09
2019-01-25T02:52:01.453Z,101044.01
2019-01-25T02:54:30.403Z,101043.09
2019-01-25T02:56:59.365Z,101046.83
2019-01-25T02:59:28.319Z,101041.00
2019-01-25T03:01:57.281Z,101043.14
2019-01-25T03:04:26.198Z,101040.89
2019-01-25T03:06:55.123Z,101045.45
2019-01-25T03:09:24.054Z,101039.81
2019-01-25T03:11:52.978Z,101041.75
2019-01-25T03:14:21.925Z,101041.19
2019-01-25T03:16:50.869Z,101045.80
2019-01-25T03:19:19.809Z,101046.31
2019-01-25T03:21:48.729Z,101043.75
2019-01-25T03:24:17.666Z,101045.14
2019-01-25T03:26:46.620Z,101039.45
2019-01-25T03:29:15.577Z,101041.70
2019-01-25T03:31:44.514Z,101042.27
2019-01-25T03:34:13.472Z,101046.77
2019-01-25T03:36:42.424Z,101041.52
2019-01-25T03:39:11.357Z,101041.30
2019-01-25T03:41:40.322Z,101049.44
2019-01-25T03:44:09.264Z,101041.76
2019-01-25T03:46:38.209Z,101039.31
2019-01-25T03:49:07.149Z,101041.86
2019-01-25T03:51:36.092Z,101037.88
2019-01-25T03:54:05.028Z,101040.13
2019-01-25T03:56:33.952Z,101039.72
2019-01-25T03:59:02.884Z,101046.51
2019-01-25T04:01:31.812Z,101050.84
2019-01-25T04:04:00.744Z,101041.09
2019-01-25T04:06:29.699Z,101041.66
2019-01-25T04:08:58.625Z,101048.41
2019-01-25T04:11:27.558Z,101051.47
2019-01-25T04:13:56.479Z,101047.59
2019-01-25T04:16:25.444Z,101051.36
2019-01-25T04:18:54.400Z,101051.92
2019-01-25T04:21:23.329Z,101054.69
2019-01-25T04:23:52.286Z,101053.77
2019-01-25T04:26:21.215Z,101051.36
2019-01-25T04:28:50.193Z,101055.28
2019-01-25T04:31:19.120Z,101047.83
2019-01-25T04:33:48.065Z,101051.46
2019-01-25T04:36:17.000Z,101050.38
2019-01-25T04:38:45.970Z,101054.12
2019-01-25T04:41:14.902Z,101051.41
2019-01-25T04:43:43.878Z,101058.41
2019-01-25T04:46:12.841Z,101059.59
2019-01-25T04:48:41.813Z,101054.37
2019-01-25T04:51:10.735Z,101067.44
2019-01-25T04:53:39.690Z,101066.70
2019-01-25T04:56:08.643Z,101068.03
2019-01-25T04:58:37.600Z,101073.66
2019-01-25T05:01:07.987Z,101076.12
2019-01-25T05:03:36.895Z,101071.41
2019-01-25T05:06:06.707Z,101081.56
2019-01-25T05:08:35.620Z,101075.14
2019-01-25T05:11:04.873Z,101077.73
2019-01-25T05:13:33.789Z,101077.97
2019-01-25T05:16:02.746Z,101074.28
2019-01-25T05:18:31.567Z,101080.33
2019-01-25T05:21:00.476Z,101079.74
2019-01-25T05:23:29.372Z,101079.16
2019-01-25T05:25:58.253Z,101086.16
2019-01-25T05:28:27.152Z,101075.48
2019-01-25T05:31:03.790Z,101065.19
2019-01-25T05:33:32.701Z,101066.31
2019-01-25T05:36:01.593Z,101069.09
2019-01-25T05:38:30.513Z,101065.15
2019-01-25T05:40:59.421Z,101063.67
2019-01-25T05:43:28.341Z,101063.30
2019-01-25T05:45:57.225Z,101071.44
2019-01-25T05:48:29.520Z,101072.91
2019-01-25T05:51:02.943Z,101071.63
2019-01-25T05:53:31.839Z,101072.66
2019-01-25T05:56:00.785Z,101074.79
2019-01-25T05:58:29.684Z,101070.75
2019-01-25T06:00:58.586Z,101066.59
2019-01-25T06:03:27.496Z,101061.87
2019-01-25T06:06:03.872Z,101065.33
2019-01-25T06:08:33.690Z,101060.19
2019-01-25T06:11:09.847Z,101062.79
2019-01-25T06:13:39.800Z,101068.32
2019-01-25T06:16:08.699Z,101058.39
2019-01-25T06:18:37.592Z,101052.73
2019-01-25T06:21:06.509Z,101043.55
2019-01-25T06:23:35.415Z,101043.33
2019-01-25T06:26:05.007Z,101039.86
2019-01-25T06:28:33.895Z,101036.03
2019-01-25T06:31:02.803Z,101041.45
2019-01-25T06:33:31.686Z,101042.93
2019-01-25T06:36:00.585Z,101035.06
2019-01-25T06:38:29.523Z,101039.20
2019-01-25T06:40:58.372Z,101033.38
2019-01-25T06:43:27.282Z,101027.66
2019-01-25T06:45:56.226Z,101034.03
2019-01-25T06:48:25.153Z,101037.47
2019-01-25T06:50:54.044Z,101040.22
2019-01-25T06:53:22.938Z,101039.51
2019-01-25T06:55:51.901Z,101033.99
2019-01-25T06:58:55.171Z,101046.09
2019-01-25T07:01:57.999Z,101054.13
2019-01-25T07:04:26.878Z,101059.66
2019-01-25T07:06:55.769Z,101057.52
2019-01-25T07:09:24.671Z,101059.39
2019-01-25T07:11:53.540Z,101054.75
2019-01-25T07:14:22.450Z,101056.38
2019-01-25T07:16:51.338Z,101074.81
2019-01-25T07:19:20.214Z,101079.94
2019-01-25T07:21:49.112Z,101083.97
2019-01-25T07:24:18.003Z,101086.67
2019-01-25T07:26:46.899Z,101079.74
2019-01-25T07:29:15.811Z,101083.27
2019-01-25T07:31:46.275Z,101079.35
2019-01-25T07:34:13.555Z,101084.97
2019-01-25T07:36:42.440Z,101070.94
2019-01-25T07:39:21.609Z,101070.17
2019-01-25T07:41:50.498Z,101063.13
2019-01-25T07:44:19.436Z,101062.19
2019-01-25T07:46:48.288Z,101065.27
2019-01-25T07:49:17.153Z,101070.59
2019-01-25T07:51:46.049Z,101077.73
2019-01-25T07:54:14.940Z,101083.73
2019-01-25T07:56:43.885Z,101077.80
2019-01-25T07:59:12.725Z,101068.78
2019-01-25T08:01:41.637Z,101060.95
2019-01-25T08:04:13.764Z,101063.06
2019-01-25T08:06:43.222Z,101069.49
2019-01-25T08:09:17.206Z,101067.57
2019-01-25T08:11:49.349Z,101069.91
2019-01-25T08:14:18.543Z,101073.28
2019-01-25T08:16:50.044Z,101095.58
2019-01-25T08:19:19.200Z,101094.37
2019-01-25T08:21:50.177Z,101091.42
2019-01-25T08:24:25.534Z,101083.14
2019-01-25T08:26:54.936Z,101092.62
2019-01-25T08:29:28.205Z,101090.73
2019-01-25T08:31:57.819Z,101083.39
2019-01-25T08:34:27.329Z,101082.64
2019-01-25T08:36:56.668Z,101093.47
2019-01-25T08:39:29.083Z,101106.00
2019-01-25T08:41:59.659Z,101100.34
2019-01-25T08:44:29.223Z,101086.08
2019-01-25T08:46:58.172Z,101080.80
2019-01-25T08:49:27.456Z,101061.42
2019-01-25T08:51:59.202Z,101058.12
2019-01-25T08:54:28.769Z,101066.48
2019-01-25T08:56:58.353Z,101069.45
2019-01-25T08:59:27.554Z,101082.99
2019-01-25T09:01:56.617Z,101085.34
2019-01-25T09:04:33.812Z,101089.02
2019-01-25T09:07:05.462Z,101087.22
2019-01-25T09:09:34.344Z,101089.64
2019-01-25T09:12:03.235Z,101086.78
2019-01-25T09:14:32.116Z,101082.42
2019-01-25T09:17:00.998Z,101081.15
2019-01-25T09:19:29.882Z,101078.72
2019-01-25T09:21:58.777Z,101075.52
2019-01-25T09:24:27.699Z,101072.94
2019-01-25T09:26:56.599Z,101067.78
2019-01-25T09:29:25.511Z,101061.85
2019-01-25T09:31:54.406Z,101044.38
2019-01-25T09:34:23.306Z,101047.52
2019-01-25T09:36:52.198Z,101037.91
2019-01-25T09:39:21.074Z,101033.21
2019-01-25T09:41:49.984Z,101032.52
2019-01-25T09:44:18.896Z,101038.59
2019-01-25T09:46:47.757Z,101040.00
2019-01-25T09:49:16.652Z,101047.71
2019-01-25T09:51:45.546Z,101048.34
2019-01-25T09:54:14.465Z,101040.06
2019-01-25T09:56:43.341Z,101031.74
2019-01-25T09:59:12.220Z,101027.22
2019-01-25T10:01:41.113Z,101015.64
2019-01-25T10:04:10.025Z,101021.49
2019-01-25T10:06:38.888Z,101022.88
2019-01-25T10:09:09.189Z,101020.78
2019-01-25T10:11:38.137Z,101025.23
2019-01-25T10:14:06.997Z,101023.28
2019-01-25T10:16:35.877Z,101019.09
2019-01-25T10:19:04.832Z,101013.41
2019-01-25T10:21:33.715Z,101015.59
2019-01-25T10:24:02.616Z,101007.66
2019-01-25T10:26:31.513Z,101005.34
2019-01-25T10:29:00.446Z,100999.50
2019-01-25T10:31:29.283Z,101002.41
2019-01-25T10:33:58.203Z,101002.38
2019-01-25T10:36:27.106Z,101008.53
2019-01-25T10:38:56.049Z,101009.34
2019-01-25T10:41:24.898Z,101005.92
2019-01-25T10:43:53.800Z,101000.72
2019-01-25T10:46:22.676Z,101000.08
2019-01-25T10:48:51.581Z,100987.65
2019-01-25T10:51:20.462Z,100983.86
2019-01-25T10:53:49.323Z,100978.81
2019-01-25T10:56:18.235Z,100975.36
2019-01-25T10:58:47.096Z,100962.73
2019-01-25T11:01:16.006Z,100955.00
2019-01-25T11:03:46.569Z,100955.33
2019-01-25T11:06:13.770Z,100946.61
2019-01-25T11:08:42.641Z,100940.30
2019-01-25T11:11:11.536Z,100939.95
2019-01-25T11:13:40.436Z,100933.23
2019-01-25T11:16:11.917Z,100934.31
2019-01-25T11:18:38.245Z,100933.48
2019-01-25T11:21:07.152Z,100947.81
2019-01-25T11:23:36.023Z,100940.81
2019-01-25T11:26:04.932Z,100927.64
2019-01-25T11:28:33.807Z,100925.39
2019-01-25T11:31:02.690Z,100912.23
2019-01-25T11:33:31.575Z,100923.77
2019-01-25T11:36:00.497Z,100930.58
2019-01-25T11:38:29.386Z,100922.77
2019-01-25T11:40:58.262Z,100934.92
2019-01-25T11:43:27.178Z,100924.03
2019-01-25T11:45:56.064Z,100918.52
2019-01-25T11:48:24.976Z,100919.95
2019-01-25T11:50:53.878Z,100923.70
2019-01-25T11:53:24.357Z,100927.56
2019-01-25T11:55:53.189Z,100938.47
2019-01-25T11:58:22.138Z,100930.56
2019-01-25T12:00:51.033Z,100925.61
2019-01-25T12:03:19.945Z,100921.98
2019-01-25T12:05:48.807Z,100917.91
2019-01-25T12:08:17.681Z,100914.44
2019-01-25T12:10:46.578Z,100906.54
2019-01-25T12:13:16.252Z,100913.59
2019-01-25T12:15:44.352Z,100913.75
2019-01-25T12:18:13.257Z,100904.66
2019-01-25T12:20:42.133Z,100909.03
2019-01-25T12:23:11.999Z,100898.75
2019-01-25T12:25:39.919Z,100891.45
2019-01-25T12:28:08.803Z,100893.38
2019-01-25T12:30:39.011Z,100889.73
2019-01-25T12:33:08.964Z,100888.23
2019-01-25T12:35:40.189Z,100884.23
2019-01-25T12:38:09.100Z,100883.45
2019-01-25T12:40:42.153Z,100886.05
2019-01-25T12:43:06.852Z,100880.02
2019-01-25T12:45:35.774Z,100882.25
2019-01-25T12:48:04.760Z,100883.52
2019-01-25T12:50:49.006Z,100870.50
2019-01-25T12:53:15.335Z,100869.59
2019-01-25T12:55:44.219Z,100876.19
2019-01-25T12:58:13.122Z,100871.11
2019-01-25T13:00:42.373Z,100857.41
2019-01-25T13:03:11.474Z,100860.77
2019-01-25T13:05:40.360Z,100849.78
2019-01-25T13:08:09.254Z,100854.77
2019-01-25T13:10:38.125Z,100852.47
2019-01-25T13:13:07.032Z,100855.45
2019-01-25T13:15:35.899Z,100858.30
2019-01-25T13:18:04.790Z,100848.47
2019-01-25T13:20:33.664Z,100847.68
2019-01-25T13:23:02.544Z,100841.13
2019-01-25T13:25:31.414Z,100827.50
2019-01-25T13:28:00.297Z,100830.81
2019-01-25T13:30:29.213Z,100823.19
2019-01-25T13:32:58.120Z,100820.36
2019-01-25T13:35:26.980Z,100816.97
2019-01-25T13:37:55.860Z,100812.58
2019-01-25T13:40:24.947Z,100814.91
2019-01-25T13:42:53.825Z,100803.35
2019-01-25T13:45:22.953Z,100785.52
2019-01-25T13:47:51.884Z,100769.38
2019-01-25T13:50:22.907Z,100768.83
2019-01-25T13:52:51.781Z,100756.61
2019-01-25T13:55:20.704Z,100754.02
2019-01-25T13:57:49.566Z,100761.02
2019-01-25T14:00:29.443Z,100763.56
2019-01-25T14:02:58.336Z,100749.82
2019-01-25T14:05:27.218Z,100739.92
2019-01-25T14:07:56.173Z,100746.39
2019-01-25T14:10:29.794Z,100735.83
2019-01-25T14:12:58.695Z,100748.36
2019-01-25T14:15:31.057Z,100750.52
2019-01-25T14:18:00.399Z,100756.97
2019-01-25T14:20:34.089Z,100759.64
2019-01-25T14:23:10.483Z,100753.08
2019-01-25T14:25:39.712Z,100756.02
2019-01-25T14:28:08.823Z,100745.30
2019-01-25T14:30:39.839Z,100743.42
2019-01-25T14:33:09.510Z,100736.12
2019-01-25T14:35:39.372Z,100739.92
2019-01-25T14:38:09.293Z,100721.66
2019-01-25T14:40:38.206Z,100725.98
2019-01-25T14:43:07.117Z,100720.14
2019-01-25T14:45:36.784Z,100719.00
2019-01-25T14:48:06.282Z,100714.17
2019-01-25T14:50:35.144Z,100701.64
2019-01-25T14:53:04.038Z,100702.70
2019-01-25T14:55:32.911Z,100713.73
2019-01-25T14:58:01.808Z,100711.54
2019-01-25T15:00:30.822Z,100702.66
2019-01-25T15:02:59.729Z,100703.09
2019-01-25T15:05:28.659Z,100689.62
2019-01-25T15:07:57.623Z,100698.19
2019-01-25T15:10:26.529Z,100671.36
2019-01-25T15:12:57.352Z,100682.38
2019-01-25T15:15:26.301Z,100684.27
2019-01-25T15:17:55.238Z,100674.74
2019-01-25T15:20:26.369Z,100677.51
2019-01-25T15:22:57.981Z,100681.74
2019-01-25T15:25:26.921Z,100674.68
2019-01-25T15:27:55.799Z,100677.41
2019-01-25T15:30:26.822Z,100670.78
2019-01-25T15:32:55.714Z,100666.80
2019-01-25T15:35:24.590Z,100651.72
2019-01-25T15:37:53.485Z,100659.06
2019-01-25T15:40:22.430Z,100653.78
2019-01-25T15:42:54.775Z,100652.92
2019-01-25T15:45:26.834Z,100641.68
2019-01-25T15:47:55.949Z,100621.98
2019-01-25T15:50:27.466Z,100623.55
2019-01-25T15:52:56.626Z,100628.83
2019-01-25T15:55:25.969Z,100619.04
2019-01-25T15:57:55.165Z,100626.02
2019-01-25T16:00:25.229Z,100619.09
2019-01-25T16:02:54.190Z,100614.84
2019-01-25T16:05:23.697Z,100604.77
2019-01-25T16:07:52.660Z,100616.23
2019-01-25T16:10:21.806Z,100615.67
2019-01-25T16:12:51.197Z,100600.15
2019-01-25T16:15:25.338Z,100595.28
2019-01-25T16:17:54.214Z,100598.92
2019-01-25T16:20:23.158Z,100606.72
2019-01-25T16:22:52.033Z,100599.00
2019-01-25T16:25:26.443Z,100619.34
2019-01-25T16:27:55.336Z,100613.56
2019-01-25T16:30:26.362Z,100611.78
2019-01-25T16:32:55.252Z,100616.28
2019-01-25T16:35:24.139Z,100618.38
2019-01-25T16:37:53.022Z,100619.64
2019-01-25T16:40:22.645Z,100618.86
2019-01-25T16:42:51.518Z,100604.15
2019-01-25T16:45:25.848Z,100611.94
2019-01-25T16:47:54.809Z,100605.19
2019-01-25T16:50:24.126Z,100599.14
2019-01-25T16:52:52.521Z,100604.34
2019-01-25T16:55:21.411Z,100603.92
2019-01-25T16:57:50.314Z,100593.64
2019-01-25T17:00:22.050Z,100593.66
2019-01-25T17:02:50.942Z,100597.16
2019-01-25T17:05:19.809Z,100580.59
2019-01-25T17:07:48.719Z,100592.45
2019-01-25T17:10:17.676Z,100588.83
2019-01-25T17:12:46.538Z,100583.20
2019-01-25T17:15:15.489Z,100592.09
2019-01-25T17:17:44.377Z,100588.40
2019-01-25T17:20:20.022Z,100580.05
2019-01-25T17:22:42.798Z,100588.83
2019-01-25T17:25:11.703Z,100575.65
2019-01-25T17:27:40.575Z,100565.69
2019-01-25T17:30:19.202Z,100561.05
2019-01-25T17:32:48.077Z,100558.11
2019-01-25T17:35:17.070Z,100561.91
2019-01-25T17:37:46.023Z,100553.16
2019-01-25T17:40:16.204Z,100549.92
2019-01-25T17:42:45.084Z,100558.97
2019-01-25T17:45:14.048Z,100550.95
2019-01-25T17:47:42.956Z,100552.69
2019-01-25T17:50:12.592Z,100548.11
2019-01-25T17:52:41.554Z,100550.32
2019-01-25T17:55:10.881Z,100542.41
2019-01-25T17:57:39.776Z,100537.73
2019-01-25T18:00:17.701Z,100540.69
2019-01-25T18:02:46.606Z,100531.14
2019-01-25T18:05:15.462Z,100533.22
2019-01-25T18:07:44.399Z,100528.75
2019-01-25T18:10:14.896Z,100530.28
2019-01-25T18:12:43.766Z,100522.06
2019-01-25T18:15:12.818Z,100521.40
2019-01-25T18:17:41.707Z,100522.64
2019-01-25T18:20:12.694Z,100519.38
2019-01-25T18:22:41.960Z,100508.80
2019-01-25T18:25:12.817Z,100507.27
2019-01-25T18:27:44.862Z,100507.27
2019-01-25T18:30:21.249Z,100516.52
2019-01-25T18:32:50.132Z,100509.71
2019-01-25T18:35:19.045Z,100510.78
2019-01-25T18:37:47.915Z,100502.75
2019-01-25T18:40:16.870Z,100504.75
2019-01-25T18:42:45.763Z,100497.66
2019-01-25T18:45:14.653Z,100491.94
2019-01-25T18:47:46.260Z,100499.89
2019-01-25T18:50:15.296Z,100495.68
2019-01-25T18:52:44.178Z,100501.33
2019-01-25T18:55:15.575Z,100494.45
2019-01-25T18:57:44.504Z,100493.77
2019-01-25T19:00:16.430Z,100499.13
2019-01-25T19:02:45.475Z,100496.17
2019-01-25T19:05:14.348Z,100479.73
2019-01-25T19:07:43.240Z,100489.24
2019-01-25T19:10:15.393Z,100476.70
2019-01-25T19:12:44.273Z,100474.84
2019-01-25T19:15:14.739Z,100475.10
2019-01-25T19:17:43.680Z,100463.83
2019-01-25T19:20:13.135Z,100466.52
2019-01-25T19:22:42.002Z,100471.19
2019-01-25T19:25:10.953Z,100467.55
2019-01-25T19:27:39.793Z,100465.27
2019-01-25T19:30:14.111Z,100463.92
2019-01-25T19:32:43.005Z,100463.57
2019-01-25T19:35:11.950Z,100452.17
2019-01-25T19:37:40.839Z,100449.98
2019-01-25T19:40:11.781Z,100443.66
2019-01-25T19:42:40.651Z,100449.40
2019-01-25T19:45:11.975Z,100445.96
2019-01-25T19:47:39.091Z,100444.63
2019-01-25T19:50:09.928Z,100440.13
2019-01-25T19:52:38.858Z,100442.42
2019-01-25T19:55:10.979Z,100445.73
2019-01-25T19:57:39.873Z,100449.52
2019-01-25T20:00:15.476Z,100454.41
2019-01-25T20:02:44.390Z,100444.70
2019-01-25T20:05:14.206Z,100446.63
2019-01-25T20:07:43.114Z,100450.86
2019-01-25T20:10:12.035Z,100444.13
2019-01-25T20:12:40.938Z,100438.78
2019-01-25T20:15:19.243Z,100449.67
2019-01-25T20:17:40.820Z,100440.36
2019-01-25T20:20:13.308Z,100437.30
2019-01-25T20:22:42.264Z,100446.28
2019-01-25T20:25:11.153Z,100448.16
2019-01-25T20:27:40.032Z,100446.77
2019-01-25T20:30:12.368Z,100441.69
2019-01-25T20:32:41.400Z,100442.27
2019-01-25T20:35:12.302Z,100440.92
2019-01-25T20:37:41.307Z,100441.88
2019-01-25T20:40:12.310Z,100441.39
2019-01-25T20:42:41.322Z,100441.97
2019-01-25T20:45:13.269Z,100442.98
2019-01-25T20:47:42.196Z,100446.22
2019-01-25T20:50:13.623Z,100447.55
2019-01-25T20:52:42.512Z,100438.72
2019-01-25T20:55:12.722Z,100448.54
2019-01-25T20:57:41.630Z,100447.16
2019-01-25T21:00:13.590Z,100452.14
2019-01-25T21:02:42.489Z,100448.17
2019-01-25T21:05:11.393Z,100440.23
2019-01-25T21:07:40.287Z,100440.37
2019-01-25T21:10:11.611Z,100449.14
2019-01-25T21:12:40.494Z,100437.69
2019-01-25T21:15:11.064Z,100447.48
2019-01-25T21:17:39.923Z,100436.94
2019-01-25T21:20:14.637Z,100439.03
2019-01-25T21:22:43.561Z,100427.39
2019-01-25T21:25:12.458Z,100436.45
2019-01-25T21:27:41.347Z,100424.64
2019-01-25T21:30:13.878Z,100421.65
2019-01-25T21:32:42.785Z,100417.56
2019-01-25T21:35:11.776Z,100411.92
2019-01-25T21:37:40.656Z,100414.70
2019-01-25T21:40:14.906Z,100410.06
2019-01-25T21:42:43.811Z,100415.91
2019-01-25T21:45:14.821Z,100402.98
2019-01-25T21:47:43.733Z,100404.84
2019-01-25T21:50:14.261Z,100397.00
2019-01-25T21:52:43.159Z,100401.84
2019-01-25T21:55:12.746Z,100391.32
2019-01-25T21:57:41.639Z,100394.03
2019-01-25T22:00:16.370Z,100390.25
2019-01-25T22:02:45.268Z,100399.77
2019-01-25T22:05:14.161Z,100399.48
2019-01-25T22:07:43.046Z,100389.48
2019-01-25T22:10:14.903Z,100403.39
2019-01-25T22:12:43.824Z,100410.00
2019-01-25T22:15:12.913Z,100409.05
2019-01-25T22:17:41.783Z,100405.77
2019-01-25T22:20:14.353Z,100407.66
2019-01-25T22:22:43.252Z,100415.09
2019-01-25T22:25:12.455Z,100409.14
2019-01-25T22:27:41.376Z,100413.08
2019-01-25T22:30:12.867Z,100417.09
2019-01-25T22:32:41.736Z,100416.89
2019-01-25T22:35:10.623Z,100424.17
2019-01-25T22:37:39.508Z,100420.69
2019-01-25T22:40:11.058Z,100417.17
2019-01-25T22:42:39.928Z,100416.06
2019-01-25T22:45:11.134Z,100420.63
2019-01-25T22:47:40.064Z,100421.49
2019-01-25T22:50:20.856Z,100415.27
2019-01-25T22:52:49.743Z,100421.76
2019-01-25T22:55:18.730Z,100414.57
2019-01-25T22:57:47.647Z,100418.00
2019-01-25T23:00:48.217Z,100413.75
2019-01-25T23:03:20.085Z,100413.02
2019-01-25T23:06:21.212Z,100412.56
2019-01-25T23:08:50.114Z,100405.25
2019-01-25T23:11:18.993Z,100407.31
2019-01-25T23:13:47.912Z,100409.55
2019-01-25T23:16:16.787Z,100420.66
2019-01-25T23:18:45.703Z,100414.59
2019-01-25T23:21:14.571Z,100418.62
2019-01-25T23:23:43.495Z,100413.39
2019-01-25T23:26:12.377Z,100412.53
2019-01-25T23:28:41.269Z,100405.73
2019-01-25T23:31:10.143Z,100399.37
2019-01-25T23:33:39.047Z,100398.98
2019-01-25T23:36:07.942Z,100386.05
2019-01-25T23:38:36.809Z,100393.03
2019-01-25T23:41:05.710Z,100394.60
2019-01-25T23:43:34.580Z,100391.08
2019-01-25T23:46:03.501Z,100391.08
2019-01-25T23:48:32.375Z,100388.39
2019-01-25T23:51:01.340Z,100389.27
2019-01-25T23:53:30.189Z,100397.20
2019-01-25T23:55:59.091Z,100392.56
2019-01-25T23:58:27.977Z,100391.70
